createdAt,value
2022-12-05T00:01:29.012Z,100.00
2022-12-05T00:03:58.529Z,100.00
2022-12-05T00:06:27.027Z,100.00
2022-12-05T00:08:54.046Z,100.00
2022-12-05T00:11:23.825Z,100.00
2022-12-05T00:13:52.395Z,100.00
2022-12-05T00:16:22.367Z,100.00
2022-12-05T00:18:49.161Z,100.00
2022-12-05T00:21:19.358Z,100.00
2022-12-05T00:23:46.158Z,100.00
2022-12-05T00:26:13.135Z,100.00
2022-12-05T00:28:40.448Z,100.00
2022-12-05T00:31:10.851Z,100.00
2022-12-05T00:33:38.144Z,100.00
2022-12-05T00:36:06.734Z,100.00
2022-12-05T00:38:33.430Z,100.00
2022-12-05T00:41:08.600Z,100.00
2022-12-05T00:43:35.268Z,100.00
2022-12-05T00:46:07.480Z,100.00
2022-12-05T00:48:34.494Z,100.00
2022-12-05T00:51:19.789Z,100.00
2022-12-05T00:53:47.658Z,100.00
2022-12-05T00:56:19.947Z,100.00
2022-12-05T00:58:47.569Z,100.00
2022-12-05T01:01:33.124Z,100.00
2022-12-05T01:04:02.419Z,100.00
2022-12-05T01:06:29.154Z,100.00
2022-12-05T01:08:57.070Z,100.00
2022-12-05T01:11:25.049Z,100.00
2022-12-05T01:13:52.571Z,100.00
2022-12-05T01:16:21.364Z,100.00
2022-12-05T01:18:48.491Z,100.00
2022-12-05T01:21:15.100Z,100.00
2022-12-05T01:23:41.643Z,100.00
2022-12-05T01:26:10.247Z,100.00
2022-12-05T01:28:37.223Z,100.00
2022-12-05T01:31:07.368Z,100.00
2022-12-05T01:33:34.813Z,100.00
2022-12-05T01:36:03.262Z,100.00
2022-12-05T01:38:55.878Z,100.00
2022-12-05T01:41:29.247Z,100.00
2022-12-05T01:44:19.304Z,100.00
2022-12-05T01:46:51.853Z,100.00
2022-12-05T01:49:27.630Z,100.00
2022-12-05T01:52:00.477Z,100.00
2022-12-05T01:54:27.802Z,100.00
2022-12-05T01:56:59.941Z,100.00
2022-12-05T01:59:30.521Z,100.00
2022-12-05T02:01:57.209Z,100.00
2022-12-05T02:04:23.877Z,100.00
2022-12-05T02:06:50.540Z,100.00
2022-12-05T02:09:17.049Z,100.00
2022-12-05T02:11:54.584Z,100.00
2022-12-05T02:14:44.413Z,100.00
2022-12-05T02:17:18.278Z,100.00
2022-12-05T02:20:33.217Z,100.00
2022-12-05T02:23:30.485Z,100.00
2022-12-05T02:26:33.817Z,100.00
2022-12-05T02:29:15.316Z,100.00
2022-12-05T02:31:54.890Z,100.00
2022-12-05T02:34:31.953Z,100.00
2022-12-05T02:37:17.227Z,100.00
2022-12-05T02:40:00.753Z,100.00
2022-12-05T02:42:44.062Z,100.00
2022-12-05T02:45:15.080Z,100.00
2022-12-05T02:47:46.776Z,100.00
2022-12-05T02:50:17.472Z,100.00
2022-12-05T02:52:47.994Z,100.00
2022-12-05T02:55:17.042Z,100.00
2022-12-05T02:57:48.391Z,100.00
2022-12-05T03:00:15.445Z,100.00
2022-12-05T03:02:42.652Z,100.00
2022-12-05T03:05:27.954Z,100.00
2022-12-05T03:07:58.150Z,100.00
2022-12-05T03:10:28.023Z,100.00
2022-12-05T03:13:00.465Z,100.00
2022-12-05T03:15:40.374Z,100.00
2022-12-05T03:18:10.899Z,100.00
2022-12-05T03:20:46.040Z,100.00
2022-12-05T03:23:18.480Z,100.00
2022-12-05T03:26:00.008Z,100.00
2022-12-05T03:28:46.046Z,100.00
2022-12-05T03:31:17.468Z,100.00
2022-12-05T03:33:50.514Z,100.00
2022-12-05T03:36:23.583Z,100.00
2022-12-05T03:39:13.590Z,100.00
2022-12-05T03:42:07.899Z,100.00
2022-12-05T03:44:43.253Z,100.00
2022-12-05T03:47:20.713Z,100.00
2022-12-05T03:49:51.847Z,100.00
2022-12-05T03:52:27.028Z,100.00
2022-12-05T03:54:56.900Z,100.00
2022-12-05T03:57:36.564Z,100.00
2022-12-05T04:00:12.596Z,100.00
2022-12-05T04:02:55.943Z,100.00
2022-12-05T04:05:30.927Z,100.00
2022-12-05T04:08:03.039Z,100.00
2022-12-05T04:10:33.274Z,100.00
2022-12-05T04:13:17.733Z,100.00
2022-12-05T04:16:12.682Z,100.00
2022-12-05T04:18:44.419Z,100.00
2022-12-05T04:21:29.860Z,100.00
2022-12-05T04:24:15.219Z,100.00
2022-12-05T04:26:50.124Z,100.00
2022-12-05T04:29:30.091Z,100.00
2022-12-05T04:32:02.485Z,100.00
2022-12-05T04:34:31.155Z,100.00
2022-12-05T04:37:13.389Z,100.00
2022-12-05T04:39:47.211Z,100.00
2022-12-05T04:42:18.075Z,100.00
2022-12-05T04:45:04.426Z,100.00
2022-12-05T04:47:36.341Z,100.00
2022-12-05T04:50:04.336Z,100.00
2022-12-05T04:52:32.555Z,100.00
2022-12-05T04:55:12.149Z,100.00
2022-12-05T04:58:02.949Z,100.00
2022-12-05T05:00:30.930Z,100.00
2022-12-05T05:03:24.880Z,100.00
2022-12-05T05:05:54.352Z,100.00
2022-12-05T05:08:23.894Z,100.00
2022-12-05T05:11:01.603Z,100.00
2022-12-05T05:13:28.133Z,100.00
2022-12-05T05:15:54.915Z,100.00
2022-12-05T05:18:21.451Z,100.00
2022-12-05T05:20:47.928Z,100.00
2022-12-05T05:23:14.555Z,100.00
2022-12-05T05:25:41.051Z,100.00
2022-12-05T05:28:07.543Z,100.00
2022-12-05T05:30:34.091Z,100.00
2022-12-05T05:33:00.729Z,100.00
2022-12-05T05:35:27.263Z,100.00
2022-12-05T05:37:53.767Z,100.00
2022-12-05T05:40:20.372Z,100.00
2022-12-05T05:42:49.446Z,100.00
2022-12-05T05:45:16.497Z,100.00
2022-12-05T05:47:43.413Z,100.00
2022-12-05T05:50:12.933Z,100.00
2022-12-05T05:52:41.654Z,100.00
2022-12-05T05:55:09.384Z,100.00
2022-12-05T05:57:36.350Z,100.00
2022-12-05T06:00:07.483Z,100.00
2022-12-05T06:02:35.208Z,100.00
2022-12-05T06:05:01.897Z,100.00
2022-12-05T06:07:29.142Z,100.00
2022-12-05T06:09:56.228Z,100.00
2022-12-05T06:12:23.484Z,100.00
2022-12-05T06:14:50.696Z,100.00
2022-12-05T06:17:17.732Z,100.00
2022-12-05T06:19:44.300Z,100.00
2022-12-05T06:22:10.923Z,100.00
2022-12-05T06:24:37.566Z,100.00
2022-12-05T06:27:04.652Z,99.84
2022-12-05T06:29:33.787Z,99.69
2022-12-05T06:32:01.426Z,100.00
2022-12-05T06:34:28.091Z,99.84
2022-12-05T06:36:54.859Z,99.82
2022-12-05T06:39:21.466Z,99.53
2022-12-05T06:41:47.963Z,99.98
2022-12-05T06:44:14.540Z,99.17
2022-12-05T06:46:41.049Z,98.96
2022-12-05T06:49:07.559Z,98.76
2022-12-05T06:51:34.208Z,98.64
2022-12-05T06:54:00.695Z,98.89
2022-12-05T06:56:27.328Z,98.88
2022-12-05T06:58:54.270Z,98.61
2022-12-05T07:01:38.767Z,98.86
2022-12-05T07:04:15.638Z,99.09
2022-12-05T07:06:49.992Z,99.16
2022-12-05T07:09:20.225Z,98.76
2022-12-05T07:11:49.078Z,98.79
2022-12-05T07:14:39.008Z,98.88
2022-12-05T07:17:02.471Z,98.95
2022-12-05T07:19:29.127Z,99.24
2022-12-05T07:21:55.709Z,99.16
2022-12-05T07:24:22.234Z,98.81
2022-12-05T07:26:48.788Z,98.49
2022-12-05T07:29:15.314Z,98.78
2022-12-05T07:31:42.256Z,99.47
2022-12-05T07:34:08.925Z,99.71
2022-12-05T07:36:35.605Z,99.84
2022-12-05T07:39:02.124Z,99.24
2022-12-05T07:41:31.458Z,98.96
2022-12-05T07:44:00.320Z,99.41
2022-12-05T07:46:28.725Z,99.63
2022-12-05T07:48:55.823Z,99.24
2022-12-05T07:51:23.208Z,99.06
2022-12-05T07:53:50.229Z,99.29
2022-12-05T07:56:18.328Z,99.21
2022-12-05T07:58:47.407Z,99.74
2022-12-05T08:01:24.405Z,99.42
2022-12-05T08:03:53.598Z,99.10
2022-12-05T08:06:22.651Z,99.65
2022-12-05T08:08:50.099Z,99.61
2022-12-05T08:11:31.460Z,99.71
2022-12-05T08:13:58.592Z,99.71
2022-12-05T08:16:27.764Z,99.93
2022-12-05T08:19:05.031Z,99.67
2022-12-05T08:21:31.978Z,99.23
2022-12-05T08:23:58.831Z,99.74
2022-12-05T08:26:27.925Z,99.67
2022-12-05T08:29:00.495Z,99.38
2022-12-05T08:31:29.716Z,99.18
2022-12-05T08:33:59.321Z,99.11
2022-12-05T08:36:27.654Z,99.30
2022-12-05T08:39:02.991Z,99.04
2022-12-05T08:41:30.437Z,98.87
2022-12-05T08:44:09.923Z,98.19
2022-12-05T08:46:38.771Z,98.97
2022-12-05T08:49:06.486Z,98.02
2022-12-05T08:51:33.301Z,97.78
2022-12-05T08:54:02.969Z,97.47
2022-12-05T08:56:30.729Z,97.69
2022-12-05T08:59:04.486Z,97.03
2022-12-05T09:01:32.706Z,96.91
2022-12-05T09:04:04.755Z,96.05
2022-12-05T09:06:32.963Z,95.97
2022-12-05T09:09:02.531Z,95.63
2022-12-05T09:11:32.851Z,95.77
2022-12-05T09:14:00.857Z,95.91
2022-12-05T09:16:38.557Z,95.76
2022-12-05T09:19:11.932Z,95.82
2022-12-05T09:21:38.558Z,95.32
2022-12-05T09:24:05.184Z,95.44
2022-12-05T09:26:31.889Z,95.07
2022-12-05T09:28:58.519Z,94.80
2022-12-05T09:31:27.221Z,93.87
2022-12-05T09:33:54.303Z,93.96
2022-12-05T09:36:27.264Z,94.00
2022-12-05T09:38:54.833Z,94.12
2022-12-05T09:41:58.562Z,94.15
2022-12-05T09:44:43.462Z,93.83
2022-12-05T09:47:28.515Z,93.70
2022-12-05T09:50:00.372Z,93.77
2022-12-05T09:52:38.530Z,92.98
2022-12-05T09:55:12.642Z,92.87
2022-12-05T09:57:45.278Z,92.56
2022-12-05T10:00:12.756Z,92.31
2022-12-05T10:02:48.629Z,91.59
2022-12-05T10:05:47.278Z,91.67
2022-12-05T10:08:26.209Z,91.72
2022-12-05T10:11:17.978Z,91.10
2022-12-05T10:13:44.464Z,90.86
2022-12-05T10:16:27.951Z,90.99
2022-12-05T10:19:06.733Z,90.50
2022-12-05T10:21:56.661Z,90.45
2022-12-05T10:24:38.919Z,90.09
2022-12-05T10:27:16.338Z,90.38
2022-12-05T10:30:02.298Z,90.30
2022-12-05T10:32:36.352Z,89.10
2022-12-05T10:35:37.234Z,88.65
2022-12-05T10:38:07.476Z,88.43
2022-12-05T10:40:51.724Z,88.38
2022-12-05T10:43:25.829Z,88.74
2022-12-05T10:45:52.822Z,88.42
2022-12-05T10:48:21.488Z,88.37
2022-12-05T10:50:56.908Z,88.24
2022-12-05T10:53:51.176Z,87.72
2022-12-05T10:56:38.068Z,87.62
2022-12-05T10:59:06.193Z,87.32
2022-12-05T11:01:33.727Z,87.55
2022-12-05T11:04:22.959Z,87.94
2022-12-05T11:07:01.068Z,87.36
2022-12-05T11:09:38.933Z,87.74
2022-12-05T11:12:19.808Z,86.87
2022-12-05T11:15:01.767Z,87.44
2022-12-05T11:17:38.073Z,87.05
2022-12-05T11:20:24.980Z,86.35
2022-12-05T11:22:56.650Z,86.01
2022-12-05T11:25:29.019Z,85.95
2022-12-05T11:28:01.591Z,86.46
2022-12-05T11:30:29.674Z,86.05
2022-12-05T11:33:25.264Z,86.07
2022-12-05T11:35:54.132Z,86.32
2022-12-05T11:38:24.490Z,84.88
2022-12-05T11:40:59.096Z,85.46
2022-12-05T11:43:48.214Z,85.84
2022-12-05T11:46:26.250Z,84.70
2022-12-05T11:49:23.548Z,85.06
2022-12-05T11:52:07.555Z,84.45
2022-12-05T11:55:04.509Z,84.29
2022-12-05T11:57:52.749Z,84.32
2022-12-05T12:01:06.474Z,84.61
2022-12-05T12:03:53.324Z,83.53
2022-12-05T12:06:50.587Z,83.81
2022-12-05T12:09:20.121Z,83.90
2022-12-05T12:12:02.386Z,84.13
2022-12-05T12:14:44.326Z,83.90
2022-12-05T12:17:20.061Z,84.09
2022-12-05T12:19:58.816Z,84.43
2022-12-05T12:22:40.526Z,84.69
2022-12-05T12:25:25.882Z,84.85
2022-12-05T12:28:21.976Z,84.55
2022-12-05T12:31:09.884Z,84.44
2022-12-05T12:33:46.654Z,84.71
2022-12-05T12:36:26.169Z,84.49
2022-12-05T12:39:17.816Z,84.97
2022-12-05T12:42:17.972Z,84.89
2022-12-05T12:45:18.328Z,84.58
2022-12-05T12:48:16.601Z,84.89
2022-12-05T12:50:46.475Z,84.83
2022-12-05T12:53:47.048Z,85.12
2022-12-05T12:56:36.814Z,85.11
2022-12-05T12:59:25.654Z,84.86
2022-12-05T13:01:56.780Z,84.96
2022-12-05T13:04:50.138Z,84.81
2022-12-05T13:07:42.848Z,85.50
2022-12-05T13:10:25.132Z,85.29
2022-12-05T13:12:53.270Z,85.54
2022-12-05T13:15:29.253Z,85.70
2022-12-05T13:17:56.112Z,85.15
2022-12-05T13:20:27.940Z,85.65
2022-12-05T13:22:56.754Z,85.66
2022-12-05T13:25:29.294Z,86.19
2022-12-05T13:28:00.132Z,85.52
2022-12-05T13:30:28.294Z,85.44
2022-12-05T13:33:01.614Z,85.51
2022-12-05T13:35:50.206Z,85.24
2022-12-05T13:38:59.114Z,84.91
2022-12-05T13:41:59.226Z,85.07
2022-12-05T13:44:35.388Z,84.97
2022-12-05T13:47:07.629Z,84.69
2022-12-05T13:49:47.759Z,84.90
2022-12-05T13:52:21.946Z,85.08
2022-12-05T13:54:59.559Z,85.18
2022-12-05T13:57:38.177Z,85.33
2022-12-05T14:00:23.062Z,85.06
2022-12-05T14:02:56.211Z,84.51
2022-12-05T14:05:35.043Z,84.64
2022-12-05T14:08:24.381Z,84.72
2022-12-05T14:10:50.890Z,84.15
2022-12-05T14:13:17.702Z,84.71
2022-12-05T14:15:45.887Z,84.43
2022-12-05T14:18:45.878Z,85.01
2022-12-05T14:21:25.075Z,84.80
2022-12-05T14:24:06.640Z,84.75
2022-12-05T14:27:07.271Z,84.76
2022-12-05T14:29:45.858Z,84.68
2022-12-05T14:32:24.220Z,85.75
2022-12-05T14:35:12.151Z,84.89
2022-12-05T14:37:48.399Z,84.58
2022-12-05T14:40:31.375Z,84.69
2022-12-05T14:43:04.551Z,85.33
2022-12-05T14:45:38.900Z,85.06
2022-12-05T14:48:14.860Z,85.52
2022-12-05T14:50:49.542Z,85.09
2022-12-05T14:53:22.190Z,85.58
2022-12-05T14:55:51.781Z,85.07
2022-12-05T14:58:39.556Z,85.81
2022-12-05T15:01:26.299Z,85.47
2022-12-05T15:04:00.790Z,86.19
2022-12-05T15:06:27.795Z,85.82
2022-12-05T15:09:14.562Z,85.59
2022-12-05T15:11:43.990Z,85.45
2022-12-05T15:14:21.309Z,86.18
2022-12-05T15:16:52.580Z,86.12
2022-12-05T15:19:29.892Z,85.71
2022-12-05T15:22:06.674Z,86.11
2022-12-05T15:24:39.390Z,86.60
2022-12-05T15:27:11.607Z,85.89
2022-12-05T15:29:39.943Z,86.27
2022-12-05T15:32:10.200Z,86.65
2022-12-05T15:34:45.719Z,86.64
2022-12-05T15:38:00.508Z,86.75
2022-12-05T15:40:37.053Z,86.86
2022-12-05T15:43:27.396Z,86.66
2022-12-05T15:46:26.001Z,86.44
2022-12-05T15:48:57.699Z,86.68
2022-12-05T15:51:35.556Z,86.61
2022-12-05T15:54:17.605Z,86.72
2022-12-05T15:56:57.228Z,86.57
2022-12-05T15:59:32.340Z,87.14
2022-12-05T16:02:05.735Z,86.98
2022-12-05T16:04:53.760Z,87.42
2022-12-05T16:07:22.361Z,87.52
2022-12-05T16:09:49.185Z,87.09
2022-12-05T16:12:21.920Z,87.14
2022-12-05T16:14:59.568Z,87.36
2022-12-05T16:17:30.422Z,87.99
2022-12-05T16:20:22.675Z,88.32
2022-12-05T16:22:58.213Z,87.96
2022-12-05T16:25:30.947Z,88.37
2022-12-05T16:28:22.003Z,89.20
2022-12-05T16:31:00.448Z,88.33
2022-12-05T16:33:29.380Z,88.65
2022-12-05T16:35:56.659Z,88.96
2022-12-05T16:38:25.991Z,88.97
2022-12-05T16:41:04.023Z,88.45
2022-12-05T16:43:30.539Z,89.10
2022-12-05T16:46:01.656Z,88.59
2022-12-05T16:48:31.971Z,88.05
2022-12-05T16:51:14.070Z,88.66
2022-12-05T16:53:48.461Z,87.99
2022-12-05T16:56:24.413Z,88.85
2022-12-05T16:58:51.667Z,88.19
2022-12-05T17:01:24.559Z,88.64
2022-12-05T17:03:53.504Z,88.65
2022-12-05T17:06:26.806Z,89.56
2022-12-05T17:08:54.609Z,89.83
2022-12-05T17:11:26.938Z,90.45
2022-12-05T17:13:55.778Z,90.42
2022-12-05T17:16:23.929Z,90.20
2022-12-05T17:18:50.611Z,90.03
2022-12-05T17:21:23.094Z,90.56
2022-12-05T17:23:50.683Z,90.07
2022-12-05T17:26:20.900Z,89.78
2022-12-05T17:28:48.163Z,90.38
2022-12-05T17:31:25.883Z,90.87
2022-12-05T17:33:54.435Z,91.23
2022-12-05T17:36:21.436Z,90.99
2022-12-05T17:38:48.741Z,90.92
2022-12-05T17:41:23.361Z,91.60
2022-12-05T17:43:51.417Z,92.06
2022-12-05T17:46:20.998Z,92.10
2022-12-05T17:48:51.496Z,91.76
2022-12-05T17:51:19.457Z,91.84
2022-12-05T17:53:47.679Z,92.13
2022-12-05T17:56:14.369Z,91.54
2022-12-05T17:58:41.869Z,91.27
2022-12-05T18:01:14.967Z,91.48
2022-12-05T18:03:41.686Z,91.24
2022-12-05T18:06:08.456Z,91.51
2022-12-05T18:08:39.526Z,91.77
2022-12-05T18:11:06.910Z,91.40
2022-12-05T18:13:34.366Z,91.19
2022-12-05T18:16:01.456Z,92.12
2022-12-05T18:18:29.541Z,92.17
2022-12-05T18:21:11.581Z,92.68
2022-12-05T18:23:39.311Z,92.14
2022-12-05T18:26:07.787Z,92.31
2022-12-05T18:28:37.223Z,93.16
2022-12-05T18:31:16.661Z,92.92
2022-12-05T18:33:45.159Z,93.49
2022-12-05T18:36:15.614Z,93.38
2022-12-05T18:38:43.365Z,93.10
2022-12-05T18:41:10.439Z,93.54
2022-12-05T18:43:37.103Z,93.66
2022-12-05T18:46:04.693Z,93.08
2022-12-05T18:48:43.649Z,93.66
2022-12-05T18:51:12.443Z,93.08
2022-12-05T18:53:39.999Z,93.60
2022-12-05T18:56:25.938Z,94.17
2022-12-05T18:59:02.518Z,94.23
2022-12-05T19:01:31.578Z,94.44
2022-12-05T19:03:59.526Z,94.18
2022-12-05T19:06:29.882Z,94.10
2022-12-05T19:08:59.197Z,94.64
2022-12-05T19:11:27.884Z,94.92
2022-12-05T19:13:59.518Z,95.36
2022-12-05T19:16:27.715Z,95.40
2022-12-05T19:18:56.391Z,95.65
2022-12-05T19:21:24.166Z,95.67
2022-12-05T19:23:50.966Z,95.23
2022-12-05T19:26:17.867Z,95.47
2022-12-05T19:28:44.473Z,96.27
2022-12-05T19:31:17.506Z,96.30
2022-12-05T19:33:47.854Z,96.29
2022-12-05T19:36:17.681Z,95.88
2022-12-05T19:38:45.623Z,96.07
2022-12-05T19:41:17.473Z,95.21
2022-12-05T19:43:45.058Z,95.33
2022-12-05T19:46:14.831Z,95.52
2022-12-05T19:48:41.546Z,95.72
2022-12-05T19:51:08.542Z,95.87
2022-12-05T19:53:39.098Z,96.03
2022-12-05T19:56:13.398Z,95.65
2022-12-05T19:58:40.747Z,96.10
2022-12-05T20:01:21.752Z,95.85
2022-12-05T20:03:51.024Z,95.94
2022-12-05T20:06:18.835Z,95.73
2022-12-05T20:08:47.278Z,96.08
2022-12-05T20:11:17.415Z,95.96
2022-12-05T20:13:47.378Z,95.62
2022-12-05T20:16:16.066Z,95.13
2022-12-05T20:18:42.922Z,95.00
2022-12-05T20:21:12.199Z,94.82
2022-12-05T20:23:38.769Z,95.20
2022-12-05T20:26:14.243Z,95.23
2022-12-05T20:28:41.284Z,95.63
2022-12-05T20:31:14.452Z,95.18
2022-12-05T20:33:41.724Z,95.35
2022-12-05T20:36:11.353Z,95.66
2022-12-05T20:38:38.318Z,95.28
2022-12-05T20:41:09.390Z,95.42
2022-12-05T20:43:36.020Z,95.54
2022-12-05T20:46:07.447Z,94.89
2022-12-05T20:48:34.867Z,95.26
2022-12-05T20:51:10.409Z,95.76
2022-12-05T20:53:39.203Z,95.60
2022-12-05T20:56:07.729Z,96.12
2022-12-05T20:58:35.334Z,95.87
2022-12-05T21:01:04.801Z,96.27
2022-12-05T21:03:32.376Z,96.64
2022-12-05T21:05:59.063Z,96.92
2022-12-05T21:08:25.575Z,96.95
2022-12-05T21:10:53.198Z,97.13
2022-12-05T21:13:20.034Z,97.29
2022-12-05T21:15:47.615Z,97.53
2022-12-05T21:18:15.355Z,98.04
2022-12-05T21:20:42.367Z,97.99
2022-12-05T21:23:10.880Z,98.33
2022-12-05T21:25:37.762Z,98.84
2022-12-05T21:28:04.502Z,99.38
2022-12-05T21:30:31.493Z,99.89
2022-12-05T21:32:58.020Z,100.00
2022-12-05T21:35:24.954Z,99.86
2022-12-05T21:37:51.622Z,100.00
2022-12-05T21:40:18.378Z,100.00
2022-12-05T21:42:44.916Z,100.00
2022-12-05T21:45:11.605Z,100.00
2022-12-05T21:47:38.412Z,100.00
2022-12-05T21:50:06.437Z,100.00
2022-12-05T21:52:39.405Z,100.00
2022-12-05T21:55:10.240Z,100.00
2022-12-05T21:57:40.113Z,100.00
2022-12-05T22:00:07.934Z,100.00
2022-12-05T22:02:35.653Z,100.00
2022-12-05T22:05:03.069Z,100.00
2022-12-05T22:07:29.754Z,100.00
2022-12-05T22:09:57.551Z,100.00
2022-12-05T22:12:24.765Z,100.00
2022-12-05T22:14:51.487Z,100.00
2022-12-05T22:17:18.543Z,100.00
2022-12-05T22:19:46.118Z,100.00
2022-12-05T22:22:12.854Z,100.00
2022-12-05T22:24:40.642Z,100.00
2022-12-05T22:27:07.292Z,100.00
2022-12-05T22:29:34.261Z,100.00
2022-12-05T22:32:01.062Z,100.00
2022-12-05T22:34:29.555Z,100.00
2022-12-05T22:36:56.141Z,100.00
2022-12-05T22:39:23.945Z,100.00
2022-12-05T22:41:50.578Z,100.00
2022-12-05T22:44:17.158Z,100.00
2022-12-05T22:46:43.808Z,100.00
2022-12-05T22:49:11.669Z,100.00
2022-12-05T22:51:38.276Z,100.00
2022-12-05T22:54:04.994Z,100.00
2022-12-05T22:56:31.602Z,100.00
2022-12-05T22:59:00.911Z,100.00
2022-12-05T23:01:31.772Z,100.00
2022-12-05T23:04:04.940Z,100.00
2022-12-05T23:06:33.564Z,100.00
2022-12-05T23:09:01.445Z,100.00
2022-12-05T23:11:30.745Z,100.00
2022-12-05T23:14:02.028Z,100.00
2022-12-05T23:16:32.198Z,100.00
2022-12-05T23:19:01.619Z,100.00
2022-12-05T23:21:36.039Z,100.00
2022-12-05T23:24:05.517Z,100.00
2022-12-05T23:26:36.427Z,100.00
2022-12-05T23:29:03.822Z,100.00
2022-12-05T23:31:30.904Z,100.00
2022-12-05T23:34:02.894Z,100.00
2022-12-05T23:36:31.413Z,100.00
2022-12-05T23:38:58.136Z,100.00
2022-12-05T23:41:26.086Z,100.00
2022-12-05T23:43:53.415Z,100.00
2022-12-05T23:46:22.593Z,100.00
2022-12-05T23:48:49.945Z,100.00
2022-12-05T23:51:22.132Z,100.00
2022-12-05T23:53:53.441Z,100.00
2022-12-05T23:56:22.781Z,100.00
2022-12-05T23:58:49.464Z,100.00
